Hallsville, Missouri
Current Conditions -  °F | °C
As of 11:54 AM on Friday 31 Oct 2014 (Local Time) from KCOU Reporting Station
Clear Clear  
Wind Chill: 34°   Ceiling: Unl
Heat Index: 42°   Visibility: 10mi
Dew Point: 23°   Wind: 17mph
Humidity: 47%   Direction: 360°N
Pressure: 30.39"   Gusts: 26mph
Location:  39.12°N, 92.22°W
Report Text: KCOU 311654Z 36015G23KT 10SM CLR 06/M05 A3039 RMK AO2 PK WND 36027/1602 SLP295 T00561050
Loading
Personal Weather Stations






























Interactive Weather Map
Tropical Storm Tracking
New forecast layout! Learn more

10-Day Weather Forecast

Advertisements
Track Severe Weather on mobile